Observation data for Amherst on 11/09/2019      Previous  Date       Current Mesonet Observations  Soil Data  Daily Summary Page  Observations in Plain Language
KAMH 090600Z 27008KT 03/02 A3029 RMK A01 T00250020  RH  098%=      5-min Rain = 0
KAMH 090605Z 27007KT 02/02 A3029 RMK A01 T00220017  RH  098%=      5-min Rain = 0
KAMH 090610Z 28007KT 02/01 A3029 RMK A01 T00160011  RH  098%=      5-min Rain = 0
KAMH 090615Z 27008KT 02/01 A3029 RMK A01 T00170013  RH  098%=      5-min Rain = 0
KAMH 090620Z 27008KT 02/02 A3028 RMK A01 T00210017  RH  099%=      5-min Rain = 0
KAMH 090625Z 27008KT 02/02 A3028 RMK A01 T00230019  RH  099%=      5-min Rain = 0
KAMH 090630Z 27007KT 02/02 A3028 RMK A01 T00230019  RH  099%=      5-min Rain = 0
KAMH 090635Z 27008KT 02/02 A3028 RMK A01 T00230018  RH  099%=      5-min Rain = 0
KAMH 090640Z 26007KT 02/02 A3028 RMK A01 T00210017  RH  099%=      5-min Rain = 0
KAMH 090645Z 25007KT 03/02 A3028 RMK A01 T00250021  RH  099%=      5-min Rain = 0
KAMH 090650Z 26008KT 03/02 A3028 RMK A01 T00260023  RH  099%=      5-min Rain = 0
KAMH 090655Z 26008KT 03/02 A3028 RMK A01 T00250021  RH  099%=      5-min Rain = 0
KAMH 090700Z 26008KT 03/02 A3028 RMK A01 T00250020  RH  099%=      5-min Rain = 0
KAMH 090705Z 26008KT 02/02 A3027 RMK A01 T00220018  RH  098%=      5-min Rain = 0
KAMH 090710Z 25008KT 02/02 A3027 RMK A01 T00230019  RH  099%=      5-min Rain = 0
KAMH 090715Z 26007KT 03/02 A3027 RMK A01 T00250021  RH  099%=      5-min Rain = 0
KAMH 090720Z 26007KT 02/02 A3027 RMK A01 T00210016  RH  098%=      5-min Rain = 0
KAMH 090725Z 28006KT 01/01 A3028 RMK A01 T00140009  RH  098%=      5-min Rain = 0
KAMH 090730Z 29005KT 01/01 A3027 RMK A01 T00130008  RH  098%=      5-min Rain = 0
KAMH 090735Z 28005KT 01/01 A3027 RMK A01 T00100006  RH  098%=      5-min Rain = 0
KAMH 090740Z 28005KT 01/00 A3027 RMK A01 T00070003  RH  098%=      5-min Rain = 0
KAMH 090745Z 28006KT 01/00 A3027 RMK A01 T00070003  RH  098%=      5-min Rain = 0
KAMH 090750Z 29006KT 01/00 A3027 RMK A01 T00070004  RH  099%=      5-min Rain = 0
KAMH 090755Z 29007KT 01/01 A3027 RMK A01 T00100007  RH  099%=      5-min Rain = 0
KAMH 090800Z 28007KT 01/01 A3026 RMK A01 T00110008  RH  099%=      5-min Rain = 0
KAMH 090805Z 29007KT 01/01 A3026 RMK A01 T00100007  RH  099%=      5-min Rain = 0
KAMH 090810Z 30007KT 01/01 A3026 RMK A01 T00080005  RH  099%=      5-min Rain = 0
KAMH 090815Z 30007KT 01/00 A3026 RMK A01 T00070004  RH  099%=      5-min Rain = 0
KAMH 090820Z 31007KT 01/01 A3026 RMK A01 T00080005  RH  099%=      5-min Rain = 0
KAMH 090825Z 31006KT 01/00 A3026 RMK A01 T00070004  RH  099%=      5-min Rain = 0
KAMH 090830Z 30007KT 01/00 A3026 RMK A01 T00060003  RH  099%=      5-min Rain = 0
KAMH 090835Z 30007KT 01/00 A3026 RMK A01 T00050002  RH  099%=      5-min Rain = 0
KAMH 090840Z 30007KT 01/00 A3026 RMK A01 T00060003  RH  099%=      5-min Rain = 0
KAMH 090845Z 30007KT 01/00 A3025 RMK A01 T00070004  RH  099%=      5-min Rain = 0
KAMH 090850Z 29007KT 01/01 A3025 RMK A01 T00070005  RH  099%=      5-min Rain = 0
KAMH 090855Z 30006KT 01/01 A3025 RMK A01 T00070005  RH  099%=      5-min Rain = 0
KAMH 090900Z 29006KT 01/01 A3025 RMK A01 T00090007  RH  099%=      5-min Rain = 0
KAMH 090905Z 29007KT 01/01 A3025 RMK A01 T00090006  RH  099%=      5-min Rain = 0
KAMH 090910Z 30007KT 01/01 A3025 RMK A01 T00110009  RH  100%=      5-min Rain = 0
KAMH 090915Z 30007KT 01/01 A3025 RMK A01 T00120009  RH  100%=      5-min Rain = 0
KAMH 090920Z 30007KT 01/01 A3025 RMK A01 T00120010  RH  100%=      5-min Rain = 0
KAMH 090925Z 30007KT 01/01 A3025 RMK A01 T00120009  RH  100%=      5-min Rain = 0
KAMH 090930Z 30007KT 01/01 A3025 RMK A01 T00130011  RH  100%=      5-min Rain = 0
KAMH 090935Z 30007KT 01/01 A3025 RMK A01 T00130011  RH  100%=      5-min Rain = 0
KAMH 090940Z 30007KT 01/01 A3025 RMK A01 T00130010  RH  100%=      5-min Rain = 0
KAMH 090945Z 30007KT 01/01 A3025 RMK A01 T00130011  RH  100%=      5-min Rain = 0
KAMH 090950Z 29007KT 01/01 A3024 RMK A01 T00120010  RH  100%=      5-min Rain = 0
KAMH 090955Z 30007KT 01/01 A3024 RMK A01 T00120009  RH  100%=      5-min Rain = 0
KAMH 091000Z 30007KT 01/01 A3024 RMK A01 T00120010  RH  100%=      5-min Rain = 0
KAMH 091005Z 29006KT 01/01 A3024 RMK A01 T00130011  RH  100%=      5-min Rain = 0
KAMH 091010Z 29006KT 01/01 A3024 RMK A01 T00120010  RH  100%=      5-min Rain = 0
KAMH 091015Z 30006KT 01/01 A3024 RMK A01 T00110009  RH  100%=      5-min Rain = 0
KAMH 091020Z 30007KT 01/01 A3024 RMK A01 T00110009  RH  100%=      5-min Rain = 0
KAMH 091025Z 30007KT 01/01 A3024 RMK A01 T00110009  RH  100%=      5-min Rain = 0
KAMH 091030Z 30007KT 01/01 A3024 RMK A01 T00110009  RH  100%=      5-min Rain = 0
KAMH 091035Z 31006KT 01/01 A3024 RMK A01 T00120010  RH  100%=      5-min Rain = 0
KAMH 091040Z 31007KT 01/01 A3025 RMK A01 T00120010  RH  100%=      5-min Rain = 0
KAMH 091045Z 31007KT 02/01 A3025 RMK A01 T00160014  RH  100%=      5-min Rain = 0
KAMH 091050Z 30008KT 02/02 A3024 RMK A01 T00210019  RH  100%=      5-min Rain = 0
KAMH 091055Z 31008KT 03/02 A3025 RMK A01 T00250023  RH  100%=      5-min Rain = 0
KAMH 091100Z 31008KT 03/02 A3025 RMK A01 T00260024  RH  100%=      5-min Rain = 0
KAMH 091105Z 30008KT 03/02 A3025 RMK A01 T00250022  RH  100%=      5-min Rain = 0
KAMH 091110Z 31008KT 02/02 A3024 RMK A01 T00230021  RH  100%=      5-min Rain = 0
KAMH 091115Z 30009KT 02/02 A3024 RMK A01 T00240021  RH  100%=      5-min Rain = 0
KAMH 091120Z 30009KT 03/02 A3024 RMK A01 T00270024  RH  100%=      5-min Rain = 0
KAMH 091125Z 30008KT 03/03 A3024 RMK A01 T00280025  RH  100%=      5-min Rain = 0
KAMH 091130Z 30008KT 03/03 A3024 RMK A01 T00270025  RH  100%=      5-min Rain = 0
KAMH 091135Z 30008KT 03/02 A3024 RMK A01 T00260023  RH  100%=      5-min Rain = 0
KAMH 091140Z 30008KT 03/02 A3024 RMK A01 T00250023  RH  100%=      5-min Rain = 0
KAMH 091145Z 30007KT 03/02 A3024 RMK A01 T00250023  RH  100%=      5-min Rain = 0
KAMH 091150Z 30008KT 03/02 A3024 RMK A01 T00250022  RH  100%=      5-min Rain = 0
KAMH 091155Z 30008KT 02/02 A3024 RMK A01 T00240022  RH  100%=      5-min Rain = 0
KAMH 091200Z 30008KT 02/02 A3024 RMK A01 T00230020  RH  100%=      5-min Rain = 0
KAMH 091205Z 30008KT 02/02 A3024 RMK A01 T00210019  RH  100%=      5-min Rain = 0
KAMH 091210Z 30009KT 02/02 A3024 RMK A01 T00210018  RH  100%=      5-min Rain = 0
KAMH 091215Z 29008KT 02/02 A3024 RMK A01 T00200018  RH  100%=      5-min Rain = 0
KAMH 091220Z 29008KT 02/02 A3024 RMK A01 T00190017  RH  100%=      5-min Rain = 0
KAMH 091225Z 29008KT 02/02 A3024 RMK A01 T00190017  RH  100%=      5-min Rain = 0
KAMH 091230Z 30007KT 02/02 A3025 RMK A01 T00180016  RH  100%=      5-min Rain = 0
KAMH 091235Z 30007KT 02/02 A3025 RMK A01 T00170015  RH  100%=      5-min Rain = 0
KAMH 091240Z 30007KT 02/01 A3025 RMK A01 T00160014  RH  100%=      5-min Rain = 0
KAMH 091245Z 30007KT 02/01 A3025 RMK A01 T00150013  RH  100%=      5-min Rain = 0
KAMH 091250Z 29008KT 01/01 A3025 RMK A01 T00130011  RH  100%=      5-min Rain = 0
KAMH 091255Z 29008KT 01/01 A3025 RMK A01 T00130011  RH  100%=      5-min Rain = 0
KAMH 091300Z 29008KT 01/01 A3025 RMK A01 T00110009  RH  100%=      5-min Rain = 0
KAMH 091305Z 29008KT 01/01 A3025 RMK A01 T00100008  RH  100%=      5-min Rain = 0
KAMH 091310Z 28008KT 01/01 A3025 RMK A01 T00090007  RH  100%=      5-min Rain = 0
KAMH 091315Z 29007KT 01/01 A3025 RMK A01 T00070005  RH  100%=      5-min Rain = 0
KAMH 091320Z 28006KT 01/00 A3025 RMK A01 T00060004  RH  100%=      5-min Rain = 0
KAMH 091325Z 28007KT 00/00 A3025 RMK A01 T00040003  RH  100%=      5-min Rain = 0
KAMH 091330Z 28008KT 01/00 A3025 RMK A01 T00050003  RH  100%=      5-min Rain = 0
KAMH 091335Z 27008KT 01/00 A3025 RMK A01 T00060004  RH  100%=      5-min Rain = 0
KAMH 091340Z 27008KT 01/01 A3025 RMK A01 T00070005  RH  100%=      5-min Rain = 0
KAMH 091345Z 28007KT 01/01 A3025 RMK A01 T00070005  RH  100%=      5-min Rain = 0
KAMH 091350Z 28008KT 01/01 A3025 RMK A01 T00090007  RH  100%=      5-min Rain = 0
KAMH 091355Z 28008KT 01/01 A3025 RMK A01 T00100008  RH  100%=      5-min Rain = 0
KAMH 091400Z 29008KT 01/01 A3025 RMK A01 T00120010  RH  100%=      5-min Rain = 0
KAMH 091405Z 29008KT 01/01 A3025 RMK A01 T00140012  RH  100%=      5-min Rain = 0
KAMH 091410Z 29007KT 02/01 A3026 RMK A01 T00160014  RH  100%=      5-min Rain = 0
KAMH 091415Z 29006KT 02/02 A3026 RMK A01 T00190016  RH  100%=      5-min Rain = 0
KAMH 091420Z 28006KT 02/02 A3026 RMK A01 T00200018  RH  100%=      5-min Rain = 0
KAMH 091425Z 28007KT 02/02 A3026 RMK A01 T00210019  RH  100%=      5-min Rain = 0
KAMH 091430Z 29007KT 02/02 A3026 RMK A01 T00230020  RH  100%=      5-min Rain = 0
KAMH 091435Z 29008KT 02/02 A3026 RMK A01 T00240022  RH  100%=      5-min Rain = 0
KAMH 091440Z 30008KT 03/03 A3026 RMK A01 T00270025  RH  100%=      5-min Rain = 0
KAMH 091445Z 29007KT 03/03 A3026 RMK A01 T00300028  RH  100%=      5-min Rain = 0
KAMH 091450Z 29006KT 03/03 A3026 RMK A01 T00320030  RH  100%=      5-min Rain = 0
KAMH 091455Z 29008KT 03/03 A3026 RMK A01 T00340031  RH  100%=      5-min Rain = 0
KAMH 091500Z 30006KT 04/03 A3027 RMK A01 T00360033  RH  100%=      5-min Rain = 0
KAMH 091505Z 29006KT 04/03 A3027 RMK A01 T00370034  RH  100%=      5-min Rain = 0
KAMH 091510Z 29006KT 04/04 A3027 RMK A01 T00390036  RH  100%=      5-min Rain = 0
KAMH 091515Z 29006KT 04/04 A3027 RMK A01 T00420039  RH  100%=      5-min Rain = 0
KAMH 091520Z 28006KT 04/04 A3027 RMK A01 T00430040  RH  100%=      5-min Rain = 0
KAMH 091525Z 29007KT 05/04 A3027 RMK A01 T00450043  RH  100%=      5-min Rain = 0
KAMH 091530Z 29006KT 05/04 A3027 RMK A01 T00470044  RH  100%=      5-min Rain = 0
KAMH 091535Z 28007KT 05/05 A3027 RMK A01 T00520049  RH  100%=      5-min Rain = 0
KAMH 091540Z 28006KT 05/05 A3027 RMK A01 T00530050  RH  100%=      5-min Rain = 0
KAMH 091545Z 29005KT 06/05 A3027 RMK A01 T00550052  RH  100%=      5-min Rain = 0
KAMH 091550Z 31005KT 06/05 A3027 RMK A01 T00570054  RH  100%=      5-min Rain = 0
KAMH 091555Z 29005KT 06/06 A3027 RMK A01 T00610057  RH  100%=      5-min Rain = 0
KAMH 091600Z 29006KT 07/06 A3027 RMK A01 T00660062  RH  100%=      5-min Rain = 0
KAMH 091605Z 29006KT 07/06 A3027 RMK A01 T00670064  RH  100%=      5-min Rain = 0
KAMH 091610Z 30006KT 07/07 A3027 RMK A01 T00730069  RH  100%=      5-min Rain = 0
KAMH 091615Z 30005KT 07/07 A3027 RMK A01 T00740070  RH  100%=      5-min Rain = 0
KAMH 091620Z 30005KT 08/07 A3027 RMK A01 T00790074  RH  099%=      5-min Rain = 0
KAMH 091625Z 30004KT 08/08 A3027 RMK A01 T00840076  RH  097%=      5-min Rain = 0
KAMH 091630Z 31005KT 09/07 A3027 RMK A01 T00850071  RH  093%=      5-min Rain = 0
KAMH 091635Z 30005KT 09/07 A3027 RMK A01 T00890071  RH  091%=      5-min Rain = 0
KAMH 091640Z 30005KT 09/07 A3027 RMK A01 T00910071  RH  090%=      5-min Rain = 0
KAMH 091645Z 28003KT 10/08 A3027 RMK A01 T00970076  RH  089%=      5-min Rain = 0
KAMH 091650Z 25004KT 10/08 A3026 RMK A01 T01030078  RH  087%=      5-min Rain = 0
KAMH 091655Z 25003KT 10/07 A3026 RMK A01 T01020074  RH  085%=      5-min Rain = 0
KAMH 091700Z 26003KT 11/08 A3026 RMK A01 T01060077  RH  085%=      5-min Rain = 0
KAMH 091705Z 26005KT 11/08 A3026 RMK A01 T01080076  RH  083%=      5-min Rain = 0
KAMH 091710Z 26005KT 11/08 A3025 RMK A01 T01100075  RH  081%=      5-min Rain = 0
KAMH 091715Z 26004KT 11/07 A3025 RMK A01 T01120074  RH  080%=      5-min Rain = 0
KAMH 091720Z 27004KT 12/08 A3025 RMK A01 T01160077  RH  080%=      5-min Rain = 0
KAMH 091725Z 25003KT 12/08 A3025 RMK A01 T01210080  RH  078%=      5-min Rain = 0
KAMH 091730Z 25003KT 13/08 A3025 RMK A01 T01260080  RH  076%=      5-min Rain = 0
KAMH 091735Z 26004KT 13/08 A3025 RMK A01 T01300079  RH  073%=      5-min Rain = 0
KAMH 091740Z 24003KT 14/08 A3024 RMK A01 T01370080  RH  071%=      5-min Rain = 0
KAMH 091745Z 24004KT 14/08 A3024 RMK A01 T01410081  RH  069%=      5-min Rain = 0
KAMH 091750Z 25004KT 14/08 A3024 RMK A01 T01440079  RH  067%=      5-min Rain = 0
KAMH 091755Z 25004KT 15/08 A3024 RMK A01 T01510076  RH  062%=      5-min Rain = 0
KAMH 091800Z 25006KT 16/07 A3024 RMK A01 T01580066  RH  056%=      5-min Rain = 0
KAMH 091805Z 23005KT 17/07 A3024 RMK A01 T01650071  RH  055%=      5-min Rain = 0
KAMH 091810Z 25005KT 17/07 A3024 RMK A01 T01670070  RH  054%=      5-min Rain = 0
KAMH 091815Z 24005KT 17/07 A3023 RMK A01 T01710074  RH  054%=      5-min Rain = 0
KAMH 091820Z 25005KT 17/07 A3023 RMK A01 T01740073  RH  053%=      5-min Rain = 0
KAMH 091825Z 24006KT 18/07 A3023 RMK A01 T01760065  RH  049%=      5-min Rain = 0
KAMH 091830Z 24006KT 18/06 A3022 RMK A01 T01810063  RH  047%=      5-min Rain = 0
KAMH 091835Z 24006KT 18/06 A3022 RMK A01 T01840060  RH  045%=      5-min Rain = 0
KAMH 091840Z 25008KT 19/06 A3021 RMK A01 T01910056  RH  042%=      5-min Rain = 0
KAMH 091845Z 25008KT 19/06 A3021 RMK A01 T01900055  RH  042%=      5-min Rain = 0
KAMH 091850Z 24008KT 19/05 A3021 RMK A01 T01900054  RH  042%=      5-min Rain = 0
KAMH 091855Z 24007KT 20/05 A302 RMK A01 T01960053  RH  040%=      5-min Rain = 0
KAMH 091900Z 24008KT 20/05 A302 RMK A01 T01980047  RH  038%=      5-min Rain = 0
KAMH 091905Z 23009G14KT 20/04 A302 RMK A01 T02010043  RH  036%=      5-min Rain = 0
KAMH 091910Z 23008KT 20/04 A3019 RMK A01 T02010039  RH  035%=      5-min Rain = 0
KAMH 091915Z 24008KT 20/04 A3019 RMK A01 T02040037  RH  034%=      5-min Rain = 0
KAMH 091920Z 24008KT 21/03 A3019 RMK A01 T02050029  RH  032%=      5-min Rain = 0
KAMH 091925Z 23009G14KT 21/03 A3018 RMK A01 T02090029  RH  031%=      5-min Rain = 0
KAMH 091930Z 23009KT 21/03 A3018 RMK A01 T02120026  RH  030%=      5-min Rain = 0
KAMH 091935Z 24008KT 21/03 A3018 RMK A01 T02120030  RH  031%=      5-min Rain = 0
KAMH 091940Z 24008G13KT 21/03 A3017 RMK A01 T02110028  RH  030%=      5-min Rain = 0
KAMH 091945Z 23007KT 21/03 A3017 RMK A01 T02140026  RH  029%=      5-min Rain = 0
KAMH 091950Z 24008G14KT 21/02 A3017 RMK A01 T02130023  RH  029%=      5-min Rain = 0
KAMH 091955Z 24009KT 21/02 A3017 RMK A01 T02130017  RH  028%=      5-min Rain = 0
KAMH 092000Z 24009KT 22/02 A3017 RMK A01 T02160020  RH  028%=      5-min Rain = 0
KAMH 092005Z 22007KT 22/02 A3016 RMK A01 T02170016  RH  027%=      5-min Rain = 0
KAMH 092010Z 22009KT 22/02 A3016 RMK A01 T02200019  RH  027%=      5-min Rain = 0
KAMH 092015Z 22008KT 22/01 A3016 RMK A01 T02190009  RH  025%=      5-min Rain = 0
KAMH 092020Z 23007KT 22/02 A3015 RMK A01 T02230016  RH  026%=      5-min Rain = 0
KAMH 092025Z 23007KT 22/01 A3015 RMK A01 T02230013  RH  025%=      5-min Rain = 0
KAMH 092030Z 23008KT 22/01 A3015 RMK A01 T02240012  RH  025%=      5-min Rain = 0
KAMH 092035Z 23008G13KT 22/01 A3015 RMK A01 T02230014  RH  025%=      5-min Rain = 0
KAMH 092040Z 24007KT 22/02 A3015 RMK A01 T02230019  RH  026%=      5-min Rain = 0
KAMH 092045Z 24009KT 22/01 A3015 RMK A01 T02230008  RH  024%=      5-min Rain = 0
KAMH 092050Z 24008KT 22/00 A3015 RMK A01 T02230000  RH  023%=      5-min Rain = 0
KAMH 092055Z 23007KT 22/00 A3014 RMK A01 T02230004  RH  024%=      5-min Rain = 0
KAMH 092100Z 22006G13KT 23/01 A3014 RMK A01 T02250007  RH  024%=      5-min Rain = 0
KAMH 092105Z 21007G12KT 23/00 A3014 RMK A01 T02260004  RH  023%=      5-min Rain = 0
KAMH 092110Z 24007KT 22/00 A3014 RMK A01 T02240001  RH  023%=      5-min Rain = 0
KAMH 092115Z 22007KT 23/00 A3014 RMK A01 T022500-0  RH  023%=      5-min Rain = 0
KAMH 092120Z 21007KT 22/M00 A3014 RMK A01 T02241004  RH  022%=      5-min Rain = 0
KAMH 092125Z 21006KT 23/00 A3014 RMK A01 T02250002  RH  023%=      5-min Rain = 0
KAMH 092130Z 22005G10KT 22/00 A3013 RMK A01 T02240002  RH  023%=      5-min Rain = 0
KAMH 092135Z 22009KT 23/01 A3013 RMK A01 T02250007  RH  024%=      5-min Rain = 0
KAMH 092140Z 22005KT 22/01 A3013 RMK A01 T02240005  RH  024%=      5-min Rain = 0
KAMH 092145Z 23008KT 23/01 A3013 RMK A01 T02260008  RH  024%=      5-min Rain = 0
KAMH 092150Z 24006KT 23/01 A3013 RMK A01 T02260006  RH  024%=      5-min Rain = 0
KAMH 092155Z 21008KT 23/01 A3013 RMK A01 T02270007  RH  024%=      5-min Rain = 0
KAMH 092200Z 22007KT 23/01 A3012 RMK A01 T02260005  RH  023%=      5-min Rain = 0
KAMH 092205Z 21008KT 22/00 A3012 RMK A01 T02240000  RH  023%=      5-min Rain = 0
KAMH 092210Z 20008KT 22/00 A3012 RMK A01 T02230002  RH  023%=      5-min Rain = 0
KAMH 092215Z 20008KT 22/00 A3012 RMK A01 T022100-0  RH  023%=      5-min Rain = 0
KAMH 092220Z 20008KT 22/00 A3012 RMK A01 T02210004  RH  024%=      5-min Rain = 0
KAMH 092225Z 20008KT 22/00 A3011 RMK A01 T02210004  RH  024%=      5-min Rain = 0
KAMH 092230Z 21009KT 22/00 A3012 RMK A01 T02200004  RH  024%=      5-min Rain = 0
KAMH 092235Z 21008KT 22/01 A3012 RMK A01 T02190008  RH  025%=      5-min Rain = 0
KAMH 092240Z 22009KT 22/00 A3011 RMK A01 T02160004  RH  025%=      5-min Rain = 0
KAMH 092245Z 21009KT 21/00 A3012 RMK A01 T02140004  RH  025%=      5-min Rain = 0
KAMH 092250Z 22007KT 21/00 A3012 RMK A01 T02140004  RH  025%=      5-min Rain = 0
KAMH 092255Z 21008KT 21/01 A3012 RMK A01 T02110008  RH  026%=      5-min Rain = 0
KAMH 092300Z 21009KT 21/01 A3012 RMK A01 T02070007  RH  027%=      5-min Rain = 0
KAMH 092305Z 21008KT 20/01 A3011 RMK A01 T02030010  RH  028%=      5-min Rain = 0
KAMH 092310Z 21008KT 20/01 A3011 RMK A01 T01990011  RH  029%=      5-min Rain = 0
KAMH 092315Z 21009KT 20/01 A3011 RMK A01 T01960009  RH  029%=      5-min Rain = 0
KAMH 092320Z 22008KT 19/01 A3011 RMK A01 T01920008  RH  029%=      5-min Rain = 0
KAMH 092325Z 22008KT 19/01 A3011 RMK A01 T01880011  RH  031%=      5-min Rain = 0
KAMH 092330Z 21008KT 18/01 A3011 RMK A01 T01840013  RH  032%=      5-min Rain = 0
KAMH 092335Z 21006KT 18/01 A3011 RMK A01 T01790014  RH  034%=      5-min Rain = 0
KAMH 092340Z 21007KT 17/02 A3011 RMK A01 T01730016  RH  035%=      5-min Rain = 0
KAMH 092345Z 21006KT 17/02 A3011 RMK A01 T01700015  RH  036%=      5-min Rain = 0
KAMH 092350Z 21005KT 17/02 A3011 RMK A01 T01650016  RH  037%=      5-min Rain = 0
KAMH 092355Z 21006KT 16/02 A3011 RMK A01 T01610017  RH  038%=      5-min Rain = 0
KAMH 100000Z 21007KT 16/02 A3011 RMK A01 T01620019  RH  038%=      5-min Rain = 0
KAMH 100005Z 21006KT 16/02 A3011 RMK A01 T01600020  RH  039%=      5-min Rain = 0
KAMH 100010Z 21006KT 16/02 A3011 RMK A01 T01590022  RH  040%=      5-min Rain = 0
KAMH 100015Z 21006KT 16/02 A3011 RMK A01 T01570022  RH  041%=      5-min Rain = 0
KAMH 100020Z 21007KT 16/02 A3011 RMK A01 T01550022  RH  041%=      5-min Rain = 0
KAMH 100025Z 21006KT 16/02 A3011 RMK A01 T01550022  RH  041%=      5-min Rain = 0
KAMH 100030Z 20006KT 15/02 A3011 RMK A01 T01530022  RH  042%=      5-min Rain = 0
KAMH 100035Z 21007KT 15/02 A3011 RMK A01 T01490023  RH  043%=      5-min Rain = 0
KAMH 100040Z 19006KT 14/02 A3011 RMK A01 T01410024  RH  046%=      5-min Rain = 0
KAMH 100045Z 21006KT 13/03 A3012 RMK A01 T01270027  RH  051%=      5-min Rain = 0
KAMH 100050Z 20006KT 13/03 A3012 RMK A01 T01320027  RH  050%=      5-min Rain = 0
KAMH 100055Z 20005KT 13/03 A3012 RMK A01 T01310026  RH  050%=      5-min Rain = 0
KAMH 100100Z 20005KT 13/03 A3012 RMK A01 T01280027  RH  051%=      5-min Rain = 0
KAMH 100105Z 20005KT 13/03 A3012 RMK A01 T01250027  RH  052%=      5-min Rain = 0
KAMH 100110Z 21005KT 13/03 A3012 RMK A01 T01250028  RH  052%=      5-min Rain = 0
KAMH 100115Z 23005KT 13/03 A3012 RMK A01 T01260025  RH  051%=      5-min Rain = 0
KAMH 100120Z 22004KT 12/02 A3012 RMK A01 T01210024  RH  052%=      5-min Rain = 0
KAMH 100125Z 20004KT 12/02 A3013 RMK A01 T01170024  RH  054%=      5-min Rain = 0
KAMH 100130Z 20005KT 11/03 A3013 RMK A01 T01110025  RH  056%=      5-min Rain = 0
KAMH 100135Z 21006KT 11/03 A3012 RMK A01 T01110027  RH  057%=      5-min Rain = 0
KAMH 100140Z 21006KT 11/03 A3012 RMK A01 T01110028  RH  057%=      5-min Rain = 0
KAMH 100145Z 20006KT 11/03 A3012 RMK A01 T01080028  RH  059%=      5-min Rain = 0
KAMH 100150Z 21007KT 11/03 A3012 RMK A01 T01080029  RH  059%=      5-min Rain = 0
KAMH 100155Z 21008KT 11/03 A3012 RMK A01 T01130031  RH  058%=      5-min Rain = 0
KAMH 100200Z 21008KT 12/03 A3013 RMK A01 T01160032  RH  057%=      5-min Rain = 0
KAMH 100205Z 21007KT 12/03 A3013 RMK A01 T01170034  RH  057%=      5-min Rain = 0
KAMH 100210Z 21007KT 12/03 A3012 RMK A01 T01170034  RH  058%=      5-min Rain = 0
KAMH 100215Z 21007KT 12/04 A3012 RMK A01 T01180036  RH  058%=      5-min Rain = 0
KAMH 100220Z 21007KT 12/04 A3012 RMK A01 T01180037  RH  059%=      5-min Rain = 0
KAMH 100225Z 21007KT 12/04 A3012 RMK A01 T01170038  RH  059%=      5-min Rain = 0
KAMH 100230Z 21008KT 12/04 A3012 RMK A01 T01180041  RH  060%=      5-min Rain = 0
KAMH 100235Z 21009KT 12/04 A3012 RMK A01 T01200042  RH  060%=      5-min Rain = 0
KAMH 100240Z 22009KT 12/04 A3012 RMK A01 T01190042  RH  060%=      5-min Rain = 0
KAMH 100245Z 23006KT 11/04 A3012 RMK A01 T01110040  RH  063%=      5-min Rain = 0
KAMH 100250Z 22006KT 10/04 A3012 RMK A01 T01020038  RH  066%=      5-min Rain = 0
KAMH 100255Z 21006KT 10/04 A3012 RMK A01 T00990039  RH  067%=      5-min Rain = 0
KAMH 100300Z 20005KT 10/04 A3012 RMK A01 T00990040  RH  068%=      5-min Rain = 0
KAMH 100305Z 21006KT 10/04 A3012 RMK A01 T00960039  RH  069%=      5-min Rain = 0
KAMH 100310Z 21006KT 10/04 A3012 RMK A01 T00950041  RH  071%=      5-min Rain = 0
KAMH 100315Z 22006KT 10/04 A3012 RMK A01 T00970042  RH  070%=      5-min Rain = 0
KAMH 100320Z 22007KT 10/04 A3012 RMK A01 T00960041  RH  070%=      5-min Rain = 0
KAMH 100325Z 22008KT 10/04 A3012 RMK A01 T00970042  RH  070%=      5-min Rain = 0
KAMH 100330Z 22009KT 10/04 A3011 RMK A01 T00980043  RH  070%=      5-min Rain = 0
KAMH 100335Z 22008KT 10/04 A3011 RMK A01 T00970043  RH  070%=      5-min Rain = 0
KAMH 100340Z 22007KT 10/04 A3011 RMK A01 T00970043  RH  071%=      5-min Rain = 0
KAMH 100345Z 22007KT 10/04 A3011 RMK A01 T00970043  RH  071%=      5-min Rain = 0
KAMH 100350Z 22006KT 10/04 A3011 RMK A01 T00960043  RH  071%=      5-min Rain = 0
KAMH 100355Z 22006KT 10/04 A3011 RMK A01 T00950043  RH  072%=      5-min Rain = 0
KAMH 100400Z 22005KT 09/04 A3011 RMK A01 T00910042  RH  073%=      5-min Rain = 0
KAMH 100405Z 22005KT 09/04 A3011 RMK A01 T00890042  RH  074%=      5-min Rain = 0
KAMH 100410Z 23005KT 09/04 A3011 RMK A01 T00890041  RH  074%=      5-min Rain = 0
KAMH 100415Z 23004KT 09/04 A3011 RMK A01 T00870040  RH  074%=      5-min Rain = 0
KAMH 100420Z 23004KT 08/04 A3011 RMK A01 T00840039  RH  075%=      5-min Rain = 0
KAMH 100425Z 23006KT 08/04 A3011 RMK A01 T00810038  RH  076%=      5-min Rain = 0
KAMH 100430Z 23007KT 08/04 A3011 RMK A01 T00790038  RH  077%=      5-min Rain = 0
KAMH 100435Z 23007KT 08/04 A3011 RMK A01 T00820040  RH  077%=      5-min Rain = 0
KAMH 100440Z 23007KT 09/04 A3011 RMK A01 T00850041  RH  075%=      5-min Rain = 0
KAMH 100445Z 23006KT 09/04 A3011 RMK A01 T00850039  RH  075%=      5-min Rain = 0
KAMH 100450Z 23006KT 08/04 A3011 RMK A01 T00840039  RH  075%=      5-min Rain = 0
KAMH 100455Z 23006KT 08/04 A3011 RMK A01 T00830038  RH  075%=      5-min Rain = 0
KAMH 100500Z 23006KT 08/04 A3011 RMK A01 T00810037  RH  075%=      5-min Rain = 0
KAMH 100505Z 23006KT 08/04 A3011 RMK A01 T00800037  RH  076%=      5-min Rain = 0
KAMH 100510Z 23007KT 08/04 A3011 RMK A01 T00790037  RH  076%=      5-min Rain = 0
KAMH 100515Z 23007KT 08/04 A301 RMK A01 T00780036  RH  077%=      5-min Rain = 0
KAMH 100520Z 23007KT 08/04 A301 RMK A01 T00770036  RH  077%=      5-min Rain = 0
KAMH 100525Z 23008KT 08/04 A301 RMK A01 T00770036  RH  077%=      5-min Rain = 0
KAMH 100530Z 24008KT 08/04 A301 RMK A01 T00770036  RH  077%=      5-min Rain = 0
KAMH 100535Z 24008KT 08/04 A301 RMK A01 T00780037  RH  077%=      5-min Rain = 0
KAMH 100540Z 24007KT 07/03 A301 RMK A01 T00730034  RH  077%=      5-min Rain = 0
KAMH 100545Z 24008KT 07/03 A301 RMK A01 T00680033  RH  079%=      5-min Rain = 0
KAMH 100550Z 24008KT 07/03 A301 RMK A01 T00670034  RH  081%=      5-min Rain = 0
KAMH 100555Z 24008KT 07/04 A301 RMK A01 T00680035  RH  081%=      5-min Rain = 0

Page generated in 0.0177 seconds.